Time;durP1;ratioP1;P1;durP2;ratioP2;P2;SDS_P1;SDS_P2;PMS_P1;PMS_P2;Temp;Humidity;BMP_temperature;BMP_pressure;BME280_temperature;BME280_humidity;BME280_pressure;Samples;Min_cycle;Max_cycle;Signal;HPM_P1;HPM_P2
2021/07/13 00:02:24;;;;;;;5.50;5.30;;;;;;;20.19;71.07;100482.59;4382965;32;20096;-76
2021/07/13 00:04:50;;;;;;;5.40;5.10;;;;;;;19.65;72.23;100418.44;4423733;32;20056;-74
2021/07/13 00:07:15;;;;;;;5.43;5.12;;;;;;;20.13;72.52;100491.16;4393295;32;20061;-75
2021/07/13 00:09:41;;;;;;;5.07;4.87;;;;;;;20.16;71.59;100492.69;4386313;32;20567;-76
2021/07/13 00:12:07;;;;;;;5.40;5.10;;;;;;;20.16;71.76;100495.34;4421695;32;20057;-76
2021/07/13 00:14:32;;;;;;;5.35;5.05;;;;;;;20.17;72.25;100507.72;4398186;32;20129;-75
2021/07/13 00:16:58;;;;;;;5.60;5.30;;;;;;;19.27;72.34;100363.53;4411563;32;20595;-76
2021/07/13 00:19:23;;;;;;;5.30;5.00;;;;;;;20.15;72.59;100515.00;4399519;32;20469;-76
2021/07/13 00:21:48;;;;;;;5.35;5.10;;;;;;;20.13;72.47;100513.31;4416808;32;20088;-75
2021/07/13 00:24:14;;;;;;;5.12;4.93;;;;;;;20.12;73.46;100529.44;4423241;32;20102;-77
2021/07/13 00:26:42;;;;;;;5.90;5.40;;;;;;;19.97;73.62;100514.94;4400603;32;20128;-76
2021/07/13 00:29:08;;;;;;;5.53;5.22;;;;;;;20.04;75.02;100526.66;4397775;32;20061;-76
2021/07/13 00:31:34;;;;;;;6.20;5.80;;;;;;;19.92;76.16;100534.00;4395583;32;20087;-75
2021/07/13 00:33:59;;;;;;;5.75;5.45;;;;;;;19.93;75.94;100538.34;4410950;32;20080;-76
2021/07/13 00:36:25;;;;;;;6.10;5.70;;;;;;;19.88;77.30;100548.59;4386394;32;20084;-76
2021/07/13 00:38:53;;;;;;;5.20;5.00;;;;;;;19.71;78.73;100543.03;4396291;32;20099;-76
2021/07/13 00:41:19;;;;;;;5.50;5.20;;;;;;;19.25;78.44;100482.56;4385171;32;20057;-76
2021/07/13 00:43:44;;;;;;;5.20;5.00;;;;;;;19.63;79.10;100550.84;4409629;32;20266;-76
2021/07/13 00:46:11;;;;;;;5.70;5.40;;;;;;;19.15;80.53;100503.00;4412481;32;20595;-76
2021/07/13 00:48:36;;;;;;;5.65;5.35;;;;;;;19.22;80.12;100520.91;4385522;32;20100;-75
2021/07/13 00:51:03;;;;;;;5.45;5.18;;;;;;;19.50;79.76;100558.28;4392293;32;20088;-76
2021/07/13 00:53:28;;;;;;;5.80;5.50;;;;;;;19.49;79.96;100556.63;4404521;32;20203;-75
2021/07/13 00:55:56;;;;;;;5.35;5.12;;;;;;;19.46;80.14;100555.06;4398310;32;20064;-76
2021/07/13 00:58:22;;;;;;;5.43;5.12;;;;;;;19.46;80.01;100559.56;4395988;32;20287;-76
2021/07/13 01:00:49;;;;;;;5.50;5.30;;;;;;;19.44;79.70;100553.53;4411343;32;20256;-76
2021/07/13 01:03:15;;;;;;;5.43;5.15;;;;;;;19.22;80.10;100541.34;4403334;32;20092;-75
2021/07/13 01:05:42;;;;;;;5.35;5.07;;;;;;;19.28;80.34;100564.72;4410257;32;20088;-75
2021/07/13 01:08:11;;;;;;;5.68;5.37;;;;;;;18.85;82.03;100507.47;4413899;32;20920;-76
2021/07/13 01:10:50;;;;;;;5.20;5.00;;;;;;;19.17;81.64;100563.06;4396781;32;20697;-76
2021/07/13 01:13:32;;;;;;;5.60;5.30;;;;;;;18.82;81.90;100513.03;4407900;32;20140;-75
2021/07/13 01:16:25;;;;;;;6.18;5.87;;;;;;;19.09;82.60;100560.25;4394073;32;20079;-75
2021/07/13 01:19:25;;;;;;;5.20;5.00;;;;;;;19.03;82.65;100560.81;4400010;32;20068;-75
2021/07/13 01:21:54;;;;;;;5.90;5.50;;;;;;;19.02;82.95;100557.28;4425285;32;20065;-75
2021/07/13 01:24:45;;;;;;;5.65;5.35;;;;;;;18.74;82.63;100522.53;4417678;32;20069;-74
2021/07/13 01:27:36;;;;;;;5.60;5.30;;;;;;;18.78;82.39;100509.78;4412367;32;20078;-74
2021/07/13 01:30:07;;;;;;;6.15;5.75;;;;;;;18.87;83.52;100548.06;4403458;32;20163;-75
2021/07/13 01:32:32;;;;;;;5.57;5.35;;;;;;;18.72;83.63;100539.56;4411954;32;20061;-75
2021/07/13 01:35:02;;;;;;;5.55;5.28;;;;;;;18.13;84.85;100470.34;4409105;32;20103;-74
2021/07/13 01:37:28;;;;;;;5.47;5.18;;;;;;;18.52;85.06;100536.88;4398597;32;20061;-74
2021/07/13 01:39:54;;;;;;;5.85;5.45;;;;;;;18.37;85.79;100535.56;4410709;32;20119;-75
2021/07/13 01:42:19;;;;;;;5.45;5.20;;;;;;;18.18;88.22;100532.84;4383169;32;20074;-75
2021/07/13 01:44:47;;;;;;;5.93;5.40;;;;;;;18.08;88.58;100530.12;4415521;32;20080;-75
2021/07/13 01:47:13;;;;;;;5.57;5.30;;;;;;;18.02;87.91;100526.22;4385045;32;20072;-76
2021/07/13 01:49:38;;;;;;;6.32;5.85;;;;;;;18.03;87.83;100524.41;4386534;32;21147;-75
2021/07/13 01:52:04;;;;;;;5.78;5.47;;;;;;;18.02;88.50;100512.06;4390573;32;20077;-75
2021/07/13 01:54:29;;;;;;;5.60;5.30;;;;;;;17.32;88.24;100398.56;4396370;32;20657;-75
2021/07/13 01:57:00;;;;;;;5.40;5.20;;;;;;;18.02;88.73;100512.94;4385384;32;20096;-75
2021/07/13 01:59:26;;;;;;;5.37;5.07;;;;;;;17.68;87.48;100446.78;4384628;32;20057;-75
2021/07/13 02:01:53;;;;;;;5.60;5.30;;;;;;;18.07;87.44;100507.22;4399365;32;20532;-74
2021/07/13 02:04:18;;;;;;;5.20;5.00;;;;;;;18.01;86.87;100503.28;4388318;32;20655;-74
2021/07/13 02:06:44;;;;;;;5.70;5.40;;;;;;;16.95;87.16;100335.37;4412469;32;20081;-75
2021/07/13 02:09:11;;;;;;;5.03;4.82;;;;;;;17.82;87.77;100503.12;4387312;32;20110;-74
2021/07/13 02:11:37;;;;;;;5.60;5.30;;;;;;;17.43;87.41;100442.72;4406953;32;20069;-75
2021/07/13 02:14:02;;;;;;;5.43;5.12;;;;;;;17.83;87.51;100495.09;4398349;32;20075;-74
2021/07/13 02:16:28;;;;;;;5.20;5.00;;;;;;;17.23;88.10;100425.84;4387360;32;20149;-77
2021/07/13 02:18:55;;;;;;;5.75;5.45;;;;;;;17.64;89.33;100508.22;4386689;32;20077;-76
2021/07/13 02:21:21;;;;;;;5.20;5.00;;;;;;;17.71;88.86;100485.50;4413265;32;20657;-75
2021/07/13 02:23:46;;;;;;;5.22;5.00;;;;;;;17.39;88.91;100430.72;4411909;32;20073;-75
2021/07/13 02:26:24;;;;;;;5.45;5.25;;;;;;;17.83;87.65;100489.78;4391342;32;20555;-75
2021/07/13 02:28:55;;;;;;;5.10;4.90;;;;;;;17.29;87.42;100409.41;4382168;32;20068;-75
2021/07/13 02:31:24;;;;;;;5.50;5.20;;;;;;;17.62;88.05;100473.00;4384586;32;20565;-76
2021/07/13 02:33:55;;;;;;;5.43;5.22;;;;;;;17.71;88.22;100496.94;4407618;32;20406;-75
2021/07/13 02:36:21;;;;;;;5.75;5.45;;;;;;;17.76;88.69;100496.56;4400189;32;20087;-76
2021/07/13 02:38:47;;;;;;;5.55;5.32;;;;;;;17.28;88.20;100436.06;4406309;32;20172;-75
2021/07/13 02:41:14;;;;;;;5.55;5.35;;;;;;;17.27;89.00;100426.44;4385734;32;20382;-75
2021/07/13 02:43:40;;;;;;;5.03;4.82;;;;;;;17.77;87.95;100490.28;4385691;32;20081;-75
2021/07/13 02:46:05;;;;;;;5.72;5.35;;;;;;;17.83;88.85;100489.78;4408749;32;20077;-76
2021/07/13 02:48:30;;;;;;;5.35;5.15;;;;;;;17.80;87.76;100492.69;4421430;32;20119;-74
2021/07/13 02:50:56;;;;;;;5.82;5.53;;;;;;;17.58;87.53;100442.38;4409145;32;20061;-75
2021/07/13 02:53:22;;;;;;;5.80;5.50;;;;;;;17.58;88.97;100468.94;4386675;32;20085;-75
2021/07/13 02:55:47;;;;;;;5.45;5.20;;;;;;;17.78;88.92;100485.78;4414088;32;20088;-76
2021/07/13 02:58:13;;;;;;;6.72;6.43;;;;;;;17.75;87.84;100476.28;4385445;32;20084;-74
2021/07/13 03:00:38;;;;;;;5.65;5.32;;;;;;;16.30;88.50;100239.28;4397122;32;20162;-75
2021/07/13 03:03:04;;;;;;;5.35;5.15;;;;;;;17.93;88.20;100489.81;4425068;32;20073;-75
2021/07/13 03:05:29;;;;;;;5.68;5.37;;;;;;;17.83;86.89;100472.97;4382043;32;20488;-75
2021/07/13 03:07:55;;;;;;;5.43;5.20;;;;;;;17.63;86.50;100450.81;4412646;32;20068;-75
2021/07/13 03:10:21;;;;;;;5.80;5.50;;;;;;;17.91;87.09;100486.47;4409444;32;20468;-75
2021/07/13 03:12:47;;;;;;;5.22;5.00;;;;;;;17.74;86.91;100458.69;4411741;32;20068;-75
2021/07/13 03:15:13;;;;;;;5.07;4.87;;;;;;;17.68;87.57;100451.25;4397654;32;20574;-75
2021/07/13 03:17:38;;;;;;;5.20;5.00;;;;;;;17.74;87.46;100456.88;4415212;32;20072;-75
2021/07/13 03:20:04;;;;;;;5.32;5.03;;;;;;;17.20;87.24;100364.28;4398348;32;20089;-76
2021/07/13 03:22:32;;;;;;;5.45;5.15;;;;;;;17.68;87.13;100448.59;4385024;32;20061;-77
2021/07/13 03:25:00;;;;;;;5.57;5.07;;;;;;;17.72;87.12;100460.63;4412074;32;20076;-75
2021/07/13 03:27:26;;;;;;;5.62;5.32;;;;;;;17.74;87.59;100462.19;4391329;32;20088;-76
2021/07/13 03:29:52;;;;;;;5.30;5.10;;;;;;;16.84;86.94;100316.94;4409454;32;20172;-75
2021/07/13 03:32:17;;;;;;;5.22;4.95;;;;;;;17.82;87.18;100469.50;4399207;32;20465;-75
2021/07/13 03:34:46;;;;;;;5.60;5.40;;;;;;;17.82;86.91;100469.50;4411907;32;20076;-76
2021/07/13 03:37:15;;;;;;;6.07;5.68;;;;;;;17.83;86.79;100462.38;4397070;32;20137;-77
2021/07/13 03:39:40;;;;;;;5.25;5.05;;;;;;;17.74;87.42;100451.56;4391639;32;20056;-76
2021/07/13 03:42:06;;;;;;;5.40;5.10;;;;;;;17.77;88.00;100468.22;4412282;32;20320;-75
2021/07/13 03:44:31;;;;;;;5.20;5.00;;;;;;;17.80;87.37;100473.22;4397700;32;20102;-74
2021/07/13 03:46:56;;;;;;;5.85;5.55;;;;;;;17.79;88.28;100460.94;4397331;32;20146;-74
2021/07/13 03:49:23;;;;;;;5.68;5.37;;;;;;;16.89;88.37;100316.53;4412527;32;20069;-74
2021/07/13 03:51:48;;;;;;;5.05;4.85;;;;;;;17.80;87.80;100463.47;4414736;32;20077;-74
2021/07/13 03:54:15;;;;;;;5.28;5.07;;;;;;;17.64;87.67;100442.72;4411898;32;20142;-75
2021/07/13 03:56:40;;;;;;;5.20;5.00;;;;;;;17.70;88.54;100462.56;4395361;32;20061;-75
2021/07/13 03:59:06;;;;;;;6.00;5.60;;;;;;;17.67;88.30;100455.72;4395663;32;20677;-76
2021/07/13 04:01:31;;;;;;;5.30;5.10;;;;;;;17.68;88.15;100454.75;4410000;32;20544;-76
2021/07/13 04:03:56;;;;;;;5.22;5.03;;;;;;;17.67;87.73;100455.72;4412617;32;20684;-75
2021/07/13 04:06:22;;;;;;;5.00;4.80;;;;;;;17.49;87.93;100436.06;4397749;32;20111;-75
2021/07/13 04:08:47;;;;;;;5.40;5.10;;;;;;;17.69;87.68;100466.22;4400971;32;20728;-76
2021/07/13 04:11:13;;;;;;;5.40;5.20;;;;;;;17.74;88.55;100458.69;4387612;32;20083;-75
2021/07/13 04:13:38;;;;;;;5.97;5.65;;;;;;;17.79;88.35;100453.00;4400430;32;20676;-75
2021/07/13 04:16:04;;;;;;;6.05;5.75;;;;;;;17.83;88.02;100455.25;4400499;32;20585;-75
2021/07/13 04:18:29;;;;;;;5.93;5.53;;;;;;;17.62;87.23;100426.09;4401993;32;20058;-76
2021/07/13 04:20:54;;;;;;;5.87;5.57;;;;;;;17.79;87.93;100461.78;4387293;32;20053;-76
2021/07/13 04:23:20;;;;;;;5.75;5.45;;;;;;;17.75;88.34;100460.37;4395023;32;20612;-76
2021/07/13 04:25:46;;;;;;;5.22;5.03;;;;;;;17.73;88.68;100468.44;4414471;32;20078;-75
2021/07/13 04:28:11;;;;;;;5.32;5.12;;;;;;;17.77;88.76;100463.72;4409205;32;20073;-75
2021/07/13 04:30:37;;;;;;;5.10;4.85;;;;;;;17.81;87.86;100461.66;4421833;32;20065;-75
2021/07/13 04:33:03;;;;;;;5.40;5.15;;;;;;;17.86;87.66;100470.06;4407793;32;20080;-75
2021/07/13 04:35:28;;;;;;;5.60;5.30;;;;;;;17.86;88.33;100470.06;4397445;32;20077;-75
2021/07/13 04:37:53;;;;;;;5.43;5.12;;;;;;;17.85;87.72;100471.91;4382034;32;20061;-76
2021/07/13 04:40:19;;;;;;;5.60;5.30;;;;;;;17.88;87.87;100470.78;4411284;32;20583;-75
2021/07/13 04:42:44;;;;;;;5.60;5.30;;;;;;;17.86;87.30;100472.72;4403483;32;20076;-76
2021/07/13 04:45:10;;;;;;;5.25;5.05;;;;;;;17.78;88.38;100464.56;4394798;32;20570;-76
2021/07/13 04:47:35;;;;;;;5.70;5.43;;;;;;;17.31;87.99;100414.59;4410685;32;20673;-76
2021/07/13 04:50:01;;;;;;;5.32;5.10;;;;;;;17.73;88.16;100467.63;4396584;32;20548;-77
2021/07/13 04:52:26;;;;;;;5.87;5.57;;;;;;;17.64;87.96;100447.16;4422028;32;20589;-76
2021/07/13 04:54:52;;;;;;;5.43;5.18;;;;;;;17.63;89.34;100480.00;4382446;32;20068;-75
2021/07/13 04:57:17;;;;;;;5.85;5.45;;;;;;;17.69;89.21;100472.34;4378470;32;20097;-76
2021/07/13 04:59:42;;;;;;;5.75;5.45;;;;;;;17.72;89.61;100465.94;4406153;32;20084;-76
2021/07/13 05:02:08;;;;;;;5.15;4.95;;;;;;;17.69;89.31;100467.03;4387755;32;20611;-76
2021/07/13 05:04:33;;;;;;;5.80;5.50;;;;;;;17.75;88.88;100460.37;4397945;32;20087;-75
2021/07/13 05:06:58;;;;;;;5.75;5.45;;;;;;;17.29;88.91;100390.03;4411049;32;20145;-76
2021/07/13 05:09:25;;;;;;;5.80;5.50;;;;;;;17.71;89.41;100459.78;4385599;32;20069;-76
2021/07/13 05:11:51;;;;;;;5.78;5.47;;;;;;;17.74;89.47;100459.53;4386616;32;20102;-76
2021/07/13 05:14:16;;;;;;;5.80;5.50;;;;;;;17.69;89.29;100458.25;4400855;32;20840;-76
2021/07/13 05:16:42;;;;;;;5.43;5.12;;;;;;;17.64;89.75;100461.31;4410308;32;20140;-76
2021/07/13 05:19:09;;;;;;;5.35;5.07;;;;;;;17.69;89.20;100460.91;4385444;32;20591;-76
2021/07/13 05:21:35;;;;;;;5.30;5.10;;;;;;;17.57;89.73;100438.91;4396599;32;20199;-75
2021/07/13 05:24:00;;;;;;;5.78;5.45;;;;;;;17.69;90.38;100461.72;4410384;32;20088;-76
2021/07/13 05:26:25;;;;;;;5.40;5.10;;;;;;;17.62;89.46;100441.16;4398078;32;20097;-76
2021/07/13 05:28:51;;;;;;;5.55;5.25;;;;;;;17.49;89.50;100428.94;4412006;32;20083;-75
2021/07/13 05:31:17;;;;;;;6.07;5.60;;;;;;;17.75;90.13;100466.50;4383448;32;20179;-76
2021/07/13 05:33:42;;;;;;;5.60;5.30;;;;;;;17.70;89.78;100458.13;4413968;32;20368;-76
2021/07/13 05:36:08;;;;;;;5.78;5.47;;;;;;;17.72;90.10;100448.22;4408901;32;20077;-75
2021/07/13 05:38:33;;;;;;;5.30;5.10;;;;;;;17.54;90.33;100428.56;4395023;32;20147;-75
2021/07/13 05:40:58;;;;;;;5.60;5.30;;;;;;;17.21;90.00;100371.28;4405588;32;20080;-76
2021/07/13 05:43:24;;;;;;;5.78;5.47;;;;;;;17.72;90.15;100442.03;4386583;32;20558;-75
2021/07/13 05:45:49;;;;;;;6.00;5.45;;;;;;;17.29;89.02;100379.41;4428099;32;20096;-76
2021/07/13 05:48:14;;;;;;;5.68;5.37;;;;;;;17.42;89.14;100393.31;4385531;32;20089;-75
2021/07/13 05:50:40;;;;;;;5.15;4.85;;;;;;;17.77;89.23;100450.47;4387345;32;20077;-76
2021/07/13 05:53:05;;;;;;;5.47;5.18;;;;;;;17.69;89.18;100437.00;4390703;32;20072;-76
2021/07/13 05:55:31;;;;;;;5.75;5.45;;;;;;;17.65;89.82;100414.38;4384886;32;20084;-77
2021/07/13 05:57:56;;;;;;;5.15;4.95;;;;;;;17.93;89.05;100455.31;4402351;32;20092;-75
2021/07/13 06:00:22;;;;;;;5.78;5.47;;;;;;;17.97;89.97;100453.22;4389153;32;20578;-76
2021/07/13 06:02:47;;;;;;;5.30;5.10;;;;;;;17.82;89.11;100423.50;4398380;32;20340;-76
2021/07/13 06:05:12;;;;;;;5.45;5.15;;;;;;;18.02;88.87;100456.31;4413049;32;20103;-75
2021/07/13 06:07:45;;;;;;;5.30;5.05;;;;;;;18.00;89.80;100452.94;4386778;32;20109;-76
2021/07/13 06:10:10;;;;;;;;;;;;;;;17.99;89.15;100445.97;4387832;32;20191;-76
2021/07/13 06:12:36;;;;;;;6.15;5.75;;;;;;;18.07;89.28;100454.09;4400498;32;20019;-75
2021/07/13 06:15:03;;;;;;;5.95;5.65;;;;;;;17.71;89.29;100396.09;4410460;32;20341;-75
2021/07/13 06:17:28;;;;;;;5.20;4.97;;;;;;;18.11;88.65;100466.12;4392075;32;20380;-75
2021/07/13 06:19:55;;;;;;;5.62;5.32;;;;;;;18.11;88.48;100477.59;4412107;32;20866;-77
2021/07/13 06:22:20;;;;;;;5.45;5.25;;;;;;;18.17;89.44;100475.38;4397887;32;20072;-75
2021/07/13 06:24:45;;;;;;;5.50;5.20;;;;;;;17.81;88.53;100405.91;4413159;32;20072;-76
2021/07/13 06:27:11;;;;;;;6.00;5.60;;;;;;;18.20;88.22;100478.63;4403761;32;20192;-75
2021/07/13 06:29:36;;;;;;;5.93;5.62;;;;;;;18.07;89.48;100483.31;4383330;32;20314;-76
2021/07/13 06:32:02;;;;;;;5.55;5.22;;;;;;;17.97;89.14;100463.84;4423306;32;20061;-75
2021/07/13 06:34:28;;;;;;;6.45;6.03;;;;;;;17.43;89.36;100384.38;4386724;32;20079;-75
2021/07/13 06:36:53;;;;;;;6.40;5.87;;;;;;;17.89;88.56;100472.47;4410530;32;20202;-76
2021/07/13 06:39:18;;;;;;;5.95;5.65;;;;;;;18.00;89.00;100493.66;4399313;32;20091;-76
2021/07/13 06:41:44;;;;;;;5.32;5.05;;;;;;;18.08;90.04;100479.66;4410200;32;20504;-76
2021/07/13 06:44:10;;;;;;;5.45;5.15;;;;;;;18.14;89.63;100480.00;4409504;32;20123;-75
2021/07/13 06:46:36;;;;;;;5.97;5.68;;;;;;;18.21;89.74;100474.97;4392761;32;20802;-76
2021/07/13 06:49:02;;;;;;;5.40;5.10;;;;;;;18.25;88.56;100472.91;4407699;32;20360;-76
2021/07/13 06:51:28;;;;;;;5.78;5.47;;;;;;;17.88;88.82;100409.72;4385925;32;20924;-75
2021/07/13 06:53:53;;;;;;;4.90;4.70;;;;;;;18.28;88.21;100472.59;4410519;32;20101;-76
2021/07/13 06:56:21;;;;;;;5.70;5.40;;;;;;;18.02;88.57;100435.06;4387707;32;20072;-77
2021/07/13 06:58:50;;;;;;;5.60;5.30;;;;;;;18.31;88.19;100478.50;4391855;32;20073;-75
2021/07/13 07:01:15;;;;;;;5.70;5.30;;;;;;;18.34;87.74;100482.69;4399555;32;20493;-76
2021/07/13 07:03:41;;;;;;;5.70;5.40;;;;;;;17.91;87.42;100418.28;4382877;32;20092;-75
2021/07/13 07:06:06;;;;;;;5.40;5.10;;;;;;;18.27;87.77;100466.47;4421879;32;20505;-75
2021/07/13 07:08:32;;;;;;;5.30;5.00;;;;;;;18.32;87.58;100482.00;4383951;32;20070;-76
2021/07/13 07:10:57;;;;;;;5.50;5.10;;;;;;;18.36;87.19;100483.41;4399203;32;20267;-75
2021/07/13 07:13:25;;;;;;;5.25;5.05;;;;;;;17.92;86.90;100404.03;4387085;32;20097;-75
2021/07/13 07:15:50;;;;;;;5.03;4.80;;;;;;;18.48;87.20;100489.44;4410703;32;20124;-76
2021/07/13 07:18:16;;;;;;;5.45;5.25;;;;;;;18.47;87.13;100493.09;4402516;32;20235;-76
2021/07/13 07:20:42;;;;;;;5.55;5.25;;;;;;;18.30;87.03;100478.63;4404046;32;20126;-77
2021/07/13 07:23:07;;;;;;;5.20;4.90;;;;;;;18.30;86.83;100500.75;4385804;32;20468;-77
2021/07/13 07:25:33;;;;;;;5.50;5.20;;;;;;;18.19;87.11;100500.00;4396070;32;20325;-76
2021/07/13 07:27:59;;;;;;;5.00;4.80;;;;;;;18.19;86.69;100498.19;4415757;32;20073;-77
2021/07/13 07:30:25;;;;;;;6.00;5.70;;;;;;;18.23;87.22;100490.78;4383833;32;20148;-77
2021/07/13 07:32:51;;;;;;;5.70;5.40;;;;;;;18.24;86.83;100498.63;4408346;32;20092;-76
2021/07/13 07:35:16;;;;;;;5.10;4.90;;;;;;;18.20;87.06;100486.59;4417828;32;20322;-77
2021/07/13 07:37:42;;;;;;;5.18;4.97;;;;;;;17.88;88.35;100436.28;4410357;32;20065;-77
2021/07/13 07:40:09;;;;;;;5.55;5.25;;;;;;;18.04;88.05;100476.47;4385506;32;20195;-76
2021/07/13 07:42:34;;;;;;;5.30;5.00;;;;;;;18.27;87.78;100498.34;4390207;32;20077;-76
2021/07/13 07:45:00;;;;;;;5.57;5.28;;;;;;;18.08;88.93;100484.97;4405543;32;20072;-74
2021/07/13 07:47:25;;;;;;;5.37;5.15;;;;;;;18.06;89.43;100468.34;4409158;32;20097;-76
2021/07/13 07:49:51;;;;;;;5.75;5.40;;;;;;;18.02;88.67;100448.34;4399479;32;20095;-76
2021/07/13 07:52:16;;;;;;;5.60;5.30;;;;;;;18.31;88.57;100489.13;4383126;32;20096;-74
2021/07/13 07:54:42;;;;;;;5.43;5.15;;;;;;;18.33;89.05;100483.69;4409868;32;20084;-75
2021/07/13 07:57:07;;;;;;;5.30;5.00;;;;;;;17.95;89.04;100432.12;4407926;32;20065;-76
2021/07/13 07:59:32;;;;;;;5.72;5.43;;;;;;;18.09;88.84;100462.78;4405389;32;20475;-76
2021/07/13 08:01:58;;;;;;;5.45;5.22;;;;;;;18.21;88.86;100468.84;4407781;32;20079;-75
2021/07/13 08:04:23;;;;;;;5.30;5.10;;;;;;;18.01;88.68;100433.41;4394500;32;20068;-76
2021/07/13 08:06:48;;;;;;;5.75;5.45;;;;;;;18.25;89.06;100481.69;4406021;32;20073;-75
2021/07/13 08:09:14;;;;;;;5.62;5.32;;;;;;;18.11;89.16;100466.12;4395358;32;20111;-76
2021/07/13 08:11:39;;;;;;;5.30;5.00;;;;;;;18.12;90.23;100471.31;4383340;32;20077;-76
2021/07/13 08:14:05;;;;;;;5.18;4.97;;;;;;;18.19;90.14;100466.31;4397309;32;20065;-76
2021/07/13 08:16:35;;;;;;;5.43;5.20;;;;;;;18.04;89.74;100447.25;4394203;32;20180;-75
2021/07/13 08:19:01;;;;;;;5.87;5.57;;;;;;;18.10;89.49;100465.31;4408381;32;20096;-75
2021/07/13 08:21:26;;;;;;;5.18;4.97;;;;;;;17.80;89.58;100422.81;4409588;32;20487;-75
2021/07/13 08:23:51;;;;;;;5.22;5.03;;;;;;;17.89;91.16;100456.56;4412398;32;20081;-76
2021/07/13 08:26:17;;;;;;;5.75;5.40;;;;;;;17.96;91.28;100465.69;4385842;32;20139;-75
2021/07/13 08:28:42;;;;;;;5.50;5.20;;;;;;;17.92;90.98;100470.41;4412736;32;20490;-75
2021/07/13 08:31:08;;;;;;;6.05;5.45;;;;;;;17.62;90.28;100425.22;4385165;32;20110;-76
2021/07/13 08:33:33;;;;;;;5.87;5.57;;;;;;;17.55;91.06;100420.44;4387406;32;20115;-76
2021/07/13 08:35:58;;;;;;;6.60;6.30;;;;;;;17.82;91.82;100469.50;4393706;32;20087;-76
2021/07/13 08:38:24;;;;;;;6.07;5.68;;;;;;;17.75;91.19;100468.34;4398589;32;20681;-75
2021/07/13 08:40:49;;;;;;;6.20;5.90;;;;;;;17.80;91.46;100474.09;4410476;32;20084;-75
2021/07/13 08:43:14;;;;;;;5.47;5.18;;;;;;;17.79;91.96;100477.72;4384308;32;20075;-76
2021/07/13 08:45:40;;;;;;;5.97;5.68;;;;;;;17.86;91.41;100462.97;4407060;32;20063;-76
2021/07/13 08:48:05;;;;;;;5.95;5.55;;;;;;;18.00;91.79;100463.56;4398315;32;20068;-76
2021/07/13 08:50:30;;;;;;;5.28;5.07;;;;;;;18.06;91.02;100474.53;4401374;32;20072;-76
2021/07/13 08:52:56;;;;;;;5.78;5.50;;;;;;;18.11;91.51;100461.66;4395265;32;20113;-75
2021/07/13 08:55:22;;;;;;;5.43;5.20;;;;;;;18.19;90.67;100463.66;4395567;32;20065;-74
2021/07/13 08:57:47;;;;;;;5.40;5.10;;;;;;;18.34;90.52;100458.78;4408413;32;20069;-76
2021/07/13 09:00:15;;;;;;;5.00;4.80;;;;;;;18.05;90.48;100403.78;4397917;32;20092;-74
2021/07/13 09:03:02;;;;;;;5.62;5.32;;;;;;;18.36;90.91;100466.63;4393272;32;20099;-75
2021/07/13 09:05:28;;;;;;;5.60;5.30;;;;;;;17.46;90.18;100317.78;4391321;32;20134;-76
2021/07/13 09:07:53;;;;;;;5.43;5.15;;;;;;;17.65;90.89;100348.84;4382576;32;20084;-75
2021/07/13 09:10:19;;;;;;;6.10;5.70;;;;;;;18.44;90.06;100478.28;4398618;32;20552;-75
2021/07/13 09:12:48;;;;;;;5.25;5.05;;;;;;;18.56;90.13;100475.47;4410772;32;20065;-76
2021/07/13 09:15:17;;;;;;;5.00;4.80;;;;;;;18.66;90.98;100471.00;4395610;32;20486;-77
2021/07/13 09:17:44;;;;;;;5.97;5.57;;;;;;;17.74;90.05;100329.47;4396414;32;20142;-77
2021/07/13 09:20:10;;;;;;;5.40;5.18;;;;;;;18.63;91.16;100469.47;4415245;32;20092;-75
2021/07/13 09:22:37;;;;;;;5.53;5.25;;;;;;;18.62;91.00;100461.63;4413984;32;20264;-75
2021/07/13 09:25:21;;;;;;;5.45;5.15;;;;;;;18.65;90.35;100469.34;4412989;32;20680;-75
2021/07/13 09:28:04;;;;;;;6.45;5.90;;;;;;;18.54;90.23;100460.53;4407670;32;20132;-76
2021/07/13 09:30:30;;;;;;;5.60;5.30;;;;;;;17.78;90.65;100329.19;4409689;32;20068;-76
2021/07/13 09:33:10;;;;;;;5.50;5.20;;;;;;;18.58;90.92;100462.88;4399458;32;20258;-75
2021/07/13 09:35:36;;;;;;;6.70;6.30;;;;;;;18.73;90.50;100478.31;4388925;32;20696;-75
2021/07/13 09:38:02;;;;;;;6.87;6.10;;;;;;;18.76;89.70;100460.41;4387410;32;20366;-76
2021/07/13 09:40:27;;;;;;;6.25;5.85;;;;;;;18.37;88.70;100389.44;4400525;32;20119;-75
2021/07/13 09:42:53;;;;;;;6.60;6.10;;;;;;;19.09;87.77;100478.63;4391981;32;20085;-76
2021/07/13 09:45:23;;;;;;;6.20;5.85;;;;;;;19.00;87.25;100458.19;4390565;32;20339;-75
2021/07/13 09:47:50;;;;;;;6.47;6.07;;;;;;;18.54;87.47;100396.75;4411749;32;20098;-76
2021/07/13 09:50:32;;;;;;;6.55;6.05;;;;;;;19.18;88.02;100468.94;4386415;32;20706;-76
2021/07/13 09:52:58;;;;;;;5.50;5.25;;;;;;;18.33;88.35;100327.78;4409342;32;20096;-76
2021/07/13 09:55:24;;;;;;;6.50;6.05;;;;;;;19.14;87.76;100443.63;4389155;32;20077;-75
2021/07/13 09:57:50;;;;;;;6.60;6.18;;;;;;;19.33;88.54;100426.81;4400958;32;20605;-77
2021/07/13 10:00:17;;;;;;;6.68;6.22;;;;;;;19.40;86.83;100443.03;4397684;32;20084;-75
2021/07/13 10:02:42;;;;;;;5.85;5.55;;;;;;;19.45;87.23;100446.09;4386345;32;20187;-76
2021/07/13 10:05:08;;;;;;;7.65;7.15;;;;;;;19.89;86.04;100470.38;4388748;32;20080;-76
2021/07/13 10:07:34;;;;;;;8.32;6.20;;;;;;;19.11;84.96;100354.31;4399360;32;20369;-76
2021/07/13 10:10:03;;;;;;;6.20;5.87;;;;;;;19.92;85.14;100443.44;4417226;32;20064;-76
2021/07/13 10:12:29;;;;;;;6.47;6.07;;;;;;;20.19;83.59;100473.75;4404343;32;20087;-76
2021/07/13 10:14:59;;;;;;;7.45;6.75;;;;;;;20.30;83.02;100476.22;4398777;32;20417;-77
2021/07/13 10:17:26;;;;;;;7.30;6.60;;;;;;;20.36;83.55;100472.13;4396010;32;20195;-75
2021/07/13 10:19:57;;;;;;;7.43;6.70;;;;;;;20.25;83.38;100460.66;4412470;32;20087;-75
2021/07/13 10:22:28;;;;;;;7.40;6.60;;;;;;;20.29;82.68;100472.72;4417762;32;20064;-76
2021/07/13 10:24:57;;;;;;;8.57;7.87;;;;;;;20.07;83.21;100483.78;4413972;32;20167;-75
2021/07/13 10:27:30;;;;;;;7.40;6.75;;;;;;;20.07;82.68;100452.62;4404165;32;20477;-76
2021/07/13 10:30:00;;;;;;;6.95;6.55;;;;;;;20.36;83.46;100493.44;4415693;32;20072;-75
2021/07/13 10:32:25;;;;;;;7.03;6.53;;;;;;;20.23;82.77;100483.12;4409822;32;20106;-75
2021/07/13 10:35:02;;;;;;;8.00;7.23;;;;;;;19.82;82.36;100408.84;4401597;32;20091;-75
2021/07/13 10:37:46;;;;;;;8.02;6.70;;;;;;;20.42;82.39;100477.66;4386960;32;20693;-76
2021/07/13 10:40:13;;;;;;;7.57;6.90;;;;;;;19.53;82.26;100369.03;4393921;32;20395;-76
2021/07/13 10:42:42;;;;;;;8.27;7.35;;;;;;;20.31;83.12;100484.06;4415401;32;20123;-76
2021/07/13 10:45:29;;;;;;;7.65;6.75;;;;;;;20.25;83.11;100484.66;4416566;32;20127;-76
2021/07/13 10:48:13;;;;;;;7.68;7.07;;;;;;;20.16;82.34;100484.69;4419337;32;20442;-76
2021/07/13 10:50:46;;;;;;;7.75;7.25;;;;;;;19.80;82.92;100396.69;4407648;32;20069;-76
2021/07/13 10:53:17;;;;;;;7.93;6.90;;;;;;;20.27;83.18;100481.84;4407777;32;20088;-75
2021/07/13 10:55:43;;;;;;;6.87;6.57;;;;;;;20.48;82.58;100479.75;4407241;32;20562;-76
2021/07/13 10:58:08;;;;;;;8.00;7.30;;;;;;;20.54;81.54;100472.97;4408736;32;20077;-75
2021/07/13 11:00:49;;;;;;;6.97;6.37;;;;;;;20.82;82.12;100472.97;4421089;32;20061;-74
2021/07/13 11:03:27;;;;;;;9.10;7.28;;;;;;;20.97;80.73;100479.44;4410288;32;20146;-75
2021/07/13 11:06:16;;;;;;;7.57;7.18;;;;;;;20.27;78.92;100357.44;4410656;32;20080;-75
2021/07/13 11:11:16;;;;;;;7.05;6.62;;;;;;;21.39;78.16;100475.25;4414518;32;20449;-75
2021/07/13 11:13:51;;;;;;;8.38;7.53;;;;;;;21.17;80.33;100485.44;4413613;32;20076;-76
2021/07/13 11:16:27;;;;;;;8.02;7.22;;;;;;;21.40;80.63;100480.44;4409858;32;20119;-76
2021/07/13 11:18:53;;;;;;;6.75;6.35;;;;;;;21.25;79.63;100447.31;4396006;32;20701;-75
2021/07/13 11:21:23;;;;;;;8.18;7.40;;;;;;;21.53;78.23;100485.44;4383443;32;20073;-75
2021/07/13 11:23:54;;;;;;;8.00;7.07;;;;;;;21.06;78.59;100475.00;4396588;32;20077;-76
2021/07/13 11:26:21;;;;;;;7.93;7.12;;;;;;;21.30;80.15;100482.38;4390756;32;20840;-75
2021/07/13 11:28:55;;;;;;;7.75;7.15;;;;;;;20.57;78.85;100367.84;4411086;32;20088;-75